sensor_id;sensor_type;location;lat;lon;timestamp;pressure;altitude;pressure_sealevel;temperature;humidity
23164;BME280;31429;42.674;23.350;2022-10-19T00:01:02;95337.47;;;6.36;100.00
23164;BME280;31429;42.674;23.350;2022-10-19T00:02:03;95415.69;;;6.80;100.00
23164;BME280;31429;42.674;23.350;2022-10-19T00:03:04;95418.22;;;6.80;100.00
23164;BME280;31429;42.674;23.350;2022-10-19T00:04:05;95411.13;;;7.02;100.00
23164;BME280;31429;42.674;23.350;2022-10-19T00:05:06;95417.72;;;7.17;100.00
23164;BME280;31429;42.674;23.350;2022-10-19T00:06:12;95373.81;;;7.04;100.00
23164;BME280;31429;42.674;23.350;2022-10-19T00:07:13;95412.63;;;7.17;100.00
23164;BME280;31429;42.674;23.350;2022-10-19T00:08:14;95413.63;;;7.05;100.00
23164;BME280;31429;42.674;23.350;2022-10-19T00:09:16;95399.47;;;6.89;100.00
23164;BME280;31429;42.674;23.350;2022-10-19T00:10:19;95409.75;;;6.80;100.00
23164;BME280;31429;42.674;23.350;2022-10-19T00:11:20;95381.25;;;6.58;100.00
23164;BME280;31429;42.674;23.350;2022-10-19T00:12:21;95409.84;;;6.71;100.00
23164;BME280;31429;42.674;23.350;2022-10-19T00:13:21;95412.41;;;6.72;100.00
23164;BME280;31429;42.674;23.350;2022-10-19T00:14:23;95409.84;;;6.72;100.00
23164;BME280;31429;42.674;23.350;2022-10-19T00:15:23;95414.06;;;6.75;100.00
23164;BME280;31429;42.674;23.350;2022-10-19T00:16:26;95406.47;;;6.72;100.00
23164;BME280;31429;42.674;23.350;2022-10-19T00:17:26;95392.91;;;6.70;100.00
23164;BME280;31429;42.674;23.350;2022-10-19T00:18:27;95403.16;;;6.67;100.00
23164;BME280;31429;42.674;23.350;2022-10-19T00:19:28;95399.81;;;6.62;100.00
23164;BME280;31429;42.674;23.350;2022-10-19T00:20:28;95380.59;;;6.41;100.00
23164;BME280;31429;42.674;23.350;2022-10-19T00:21:29;95403.28;;;6.55;100.00
23164;BME280;31429;42.674;23.350;2022-10-19T00:22:30;95403.28;;;6.53;100.00
23164;BME280;31429;42.674;23.350;2022-10-19T00:23:31;95402.44;;;6.54;100.00
23164;BME280;31429;42.674;23.350;2022-10-19T00:24:31;95399.03;;;6.58;100.00
23164;BME280;31429;42.674;23.350;2022-10-19T00:25:33;95395.63;;;6.58;100.00
23164;BME280;31429;42.674;23.350;2022-10-19T00:26:34;95385.53;;;6.52;100.00
23164;BME280;31429;42.674;23.350;2022-10-19T00:27:35;95391.41;;;6.57;100.00
23164;BME280;31429;42.674;23.350;2022-10-19T00:28:37;95390.59;;;6.55;100.00
23164;BME280;31429;42.674;23.350;2022-10-19T00:29:38;95387.13;;;6.59;100.00
23164;BME280;31429;42.674;23.350;2022-10-19T00:30:38;95388.88;;;6.57;100.00
23164;BME280;31429;42.674;23.350;2022-10-19T00:31:39;95383.78;;;6.57;100.00
23164;BME280;31429;42.674;23.350;2022-10-19T00:32:40;95385.53;;;6.52;100.00
23164;BME280;31429;42.674;23.350;2022-10-19T00:33:43;95380.44;;;6.53;100.00
23164;BME280;31429;42.674;23.350;2022-10-19T00:34:46;95370.19;;;6.61;100.00
23164;BME280;31429;42.674;23.350;2022-10-19T00:35:47;95370.97;;;6.66;100.00
23164;BME280;31429;42.674;23.350;2022-10-19T00:36:49;95349.97;;;6.53;100.00
23164;BME280;31429;42.674;23.350;2022-10-19T00:37:49;95363.41;;;6.61;100.00
23164;BME280;31429;42.674;23.350;2022-10-19T00:38:52;95377.00;;;6.57;100.00
23164;BME280;31429;42.674;23.350;2022-10-19T00:39:53;95369.53;;;6.47;100.00
23164;BME280;31429;42.674;23.350;2022-10-19T00:40:55;95367.81;;;6.47;100.00
23164;BME280;31429;42.674;23.350;2022-10-19T00:41:56;95365.31;;;6.46;100.00
23164;BME280;31429;42.674;23.350;2022-10-19T00:42:57;95361.09;;;6.42;100.00
23164;BME280;31429;42.674;23.350;2022-10-19T00:43:59;95341.00;;;6.26;100.00
23164;BME280;31429;42.674;23.350;2022-10-19T00:45:05;95054.66;;;4.59;100.00
23164;BME280;31429;42.674;23.350;2022-10-19T00:46:12;95358.53;;;6.45;100.00
23164;BME280;31429;42.674;23.350;2022-10-19T00:47:13;95325.94;;;6.13;100.00
23164;BME280;31429;42.674;23.350;2022-10-19T00:48:16;95355.22;;;6.41;100.00
23164;BME280;31429;42.674;23.350;2022-10-19T00:49:20;95361.06;;;6.45;100.00
23164;BME280;31429;42.674;23.350;2022-10-19T00:50:21;95353.44;;;6.46;100.00
23164;BME280;31429;42.674;23.350;2022-10-19T00:51:23;95358.56;;;6.42;100.00
23164;BME280;31429;42.674;23.350;2022-10-19T00:52:26;95345.84;;;6.46;100.00
23164;BME280;31429;42.674;23.350;2022-10-19T00:53:29;95329.94;;;6.32;100.00
23164;BME280;31429;42.674;23.350;2022-10-19T00:54:31;95348.38;;;6.46;100.00
23164;BME280;31429;42.674;23.350;2022-10-19T00:55:32;95294.41;;;6.29;100.00
23164;BME280;31429;42.674;23.350;2022-10-19T00:56:38;95344.59;;;6.74;100.00
23164;BME280;31429;42.674;23.350;2022-10-19T00:57:39;95340.94;;;6.93;100.00
23164;BME280;31429;42.674;23.350;2022-10-19T00:58:42;95304.81;;;6.75;100.00
23164;BME280;31429;42.674;23.350;2022-10-19T00:59:44;95330.78;;;6.93;100.00
23164;BME280;31429;42.674;23.350;2022-10-19T01:00:45;95338.03;;;7.18;100.00
23164;BME280;31429;42.674;23.350;2022-10-19T01:01:46;95335.28;;;7.30;100.00
23164;BME280;31429;42.674;23.350;2022-10-19T01:02:48;95338.09;;;7.13;100.00
23164;BME280;31429;42.674;23.350;2022-10-19T01:03:49;95340.22;;;6.85;100.00
23164;BME280;31429;42.674;23.350;2022-10-19T01:04:50;95340.41;;;6.70;100.00
23164;BME280;31429;42.674;23.350;2022-10-19T01:05:52;95338.06;;;6.57;100.00
23164;BME280;31429;42.674;23.350;2022-10-19T01:06:54;95333.13;;;6.45;100.00
23164;BME280;31429;42.674;23.350;2022-10-19T01:07:56;95338.25;;;6.43;100.00
23164;BME280;31429;42.674;23.350;2022-10-19T01:08:56;95315.47;;;6.37;100.00
23164;BME280;31429;42.674;23.350;2022-10-19T01:09:58;95337.22;;;6.56;100.00
23164;BME280;31429;42.674;23.350;2022-10-19T01:11:10;95326.25;;;6.54;100.00
23164;BME280;31429;42.674;23.350;2022-10-19T01:13:50;95332.28;;;6.46;100.00
23164;BME280;31429;42.674;23.350;2022-10-19T01:15:05;95324.41;;;6.65;100.00
23164;BME280;31429;42.674;23.350;2022-10-19T01:16:14;95323.44;;;6.75;100.00
23164;BME280;31429;42.674;23.350;2022-10-19T01:17:22;95321.88;;;6.65;100.00
23164;BME280;31429;42.674;23.350;2022-10-19T01:18:33;95316.91;;;6.56;100.00
23164;BME280;31429;42.674;23.350;2022-10-19T01:20:03;95302.75;;;6.38;100.00
23164;BME280;31429;42.674;23.350;2022-10-19T01:21:20;95297.09;;;6.18;100.00
23164;BME280;31429;42.674;23.350;2022-10-19T01:22:31;95329.22;;;6.21;100.00
23164;BME280;31429;42.674;23.350;2022-10-19T01:24:01;95317.44;;;6.15;100.00
23164;BME280;31429;42.674;23.350;2022-10-19T01:25:15;95317.28;;;6.27;100.00
23164;BME280;31429;42.674;23.350;2022-10-19T01:28:03;95314.09;;;6.76;100.00
23164;BME280;31429;42.674;23.350;2022-10-19T01:29:17;95307.09;;;6.91;100.00
23164;BME280;31429;42.674;23.350;2022-10-19T01:30:34;95310.41;;;6.97;100.00
23164;BME280;31429;42.674;23.350;2022-10-19T01:31:43;95292.69;;;6.90;100.00
23164;BME280;31429;42.674;23.350;2022-10-19T01:32:57;95284.22;;;6.90;100.00
23164;BME280;31429;42.674;23.350;2022-10-19T01:34:03;95306.78;;;7.10;100.00
23164;BME280;31429;42.674;23.350;2022-10-19T01:35:12;95309.28;;;7.14;100.00
23164;BME280;31429;42.674;23.350;2022-10-19T01:36:21;95050.13;;;5.55;100.00
23164;BME280;31429;42.674;23.350;2022-10-19T01:37:32;95297.41;;;7.13;100.00
23164;BME280;31429;42.674;23.350;2022-10-19T01:38:36;95303.25;;;7.20;100.00
23164;BME280;31429;42.674;23.350;2022-10-19T01:39:43;95287.44;;;7.01;100.00
23164;BME280;31429;42.674;23.350;2022-10-19T01:40:53;95310.56;;;6.84;100.00
23164;BME280;31429;42.674;23.350;2022-10-19T01:41:58;95311.75;;;6.62;100.00
23164;BME280;31429;42.674;23.350;2022-10-19T01:43:05;95308.47;;;6.54;100.00
23164;BME280;31429;42.674;23.350;2022-10-19T01:44:12;95283.41;;;6.30;100.00
23164;BME280;31429;42.674;23.350;2022-10-19T01:45:18;95302.84;;;6.32;100.00
23164;BME280;31429;42.674;23.350;2022-10-19T01:46:26;95299.50;;;6.29;100.00
23164;BME280;31429;42.674;23.350;2022-10-19T01:47:32;95294.59;;;6.15;100.00
23164;BME280;31429;42.674;23.350;2022-10-19T01:48:36;95299.78;;;6.05;100.00
23164;BME280;31429;42.674;23.350;2022-10-19T01:49:40;95295.72;;;5.92;100.00
23164;BME280;31429;42.674;23.350;2022-10-19T01:50:46;95284.41;;;6.17;100.00
23164;BME280;31429;42.674;23.350;2022-10-19T01:51:53;95292.72;;;6.28;100.00
23164;BME280;31429;42.674;23.350;2022-10-19T01:52:56;95286.97;;;6.15;100.00
23164;BME280;31429;42.674;23.350;2022-10-19T01:54:01;95294.63;;;6.11;100.00
23164;BME280;31429;42.674;23.350;2022-10-19T01:55:06;95293.88;;;6.04;100.00
23164;BME280;31429;42.674;23.350;2022-10-19T01:56:08;95257.78;;;5.76;100.00
23164;BME280;31429;42.674;23.350;2022-10-19T01:57:11;95292.34;;;5.91;100.00
23164;BME280;31429;42.674;23.350;2022-10-19T01:58:18;95293.25;;;5.87;100.00
23164;BME280;31429;42.674;23.350;2022-10-19T01:59:21;95294.13;;;5.80;100.00
23164;BME280;31429;42.674;23.350;2022-10-19T02:00:23;95289.88;;;5.79;100.00
23164;BME280;31429;42.674;23.350;2022-10-19T02:01:26;95298.31;;;5.86;100.00
23164;BME280;31429;42.674;23.350;2022-10-19T02:02:29;95291.06;;;6.27;100.00
23164;BME280;31429;42.674;23.350;2022-10-19T02:03:30;95285.56;;;6.56;100.00
23164;BME280;31429;42.674;23.350;2022-10-19T02:04:33;95287.16;;;6.64;100.00
23164;BME280;31429;42.674;23.350;2022-10-19T02:05:37;95291.38;;;6.65;100.00
23164;BME280;31429;42.674;23.350;2022-10-19T02:06:38;95258.41;;;6.62;100.00
23164;BME280;31429;42.674;23.350;2022-10-19T02:07:41;95289.56;;;6.73;100.00
23164;BME280;31429;42.674;23.350;2022-10-19T02:08:46;95289.00;;;6.53;100.00
23164;BME280;31429;42.674;23.350;2022-10-19T02:09:48;95285.03;;;6.34;100.00
23164;BME280;31429;42.674;23.350;2022-10-19T02:10:49;95292.00;;;6.21;100.00
23164;BME280;31429;42.674;23.350;2022-10-19T02:11:52;95285.34;;;6.10;100.00
23164;BME280;31429;42.674;23.350;2022-10-19T02:12:57;95267.66;;;6.02;100.00
23164;BME280;31429;42.674;23.350;2022-10-19T02:14:03;95248.44;;;5.82;100.00
23164;BME280;31429;42.674;23.350;2022-10-19T02:15:09;95277.81;;;6.04;100.00
23164;BME280;31429;42.674;23.350;2022-10-19T02:16:14;95286.38;;;5.94;100.00
23164;BME280;31429;42.674;23.350;2022-10-19T02:17:19;95289.84;;;5.85;100.00
23164;BME280;31429;42.674;23.350;2022-10-19T02:18:25;95255.41;;;5.63;100.00
23164;BME280;31429;42.674;23.350;2022-10-19T02:19:27;95288.28;;;5.70;100.00
23164;BME280;31429;42.674;23.350;2022-10-19T02:20:29;95279.06;;;5.66;100.00
23164;BME280;31429;42.674;23.350;2022-10-19T02:21:30;95264.78;;;5.56;100.00
23164;BME280;31429;42.674;23.350;2022-10-19T02:22:31;95276.50;;;5.68;100.00
23164;BME280;31429;42.674;23.350;2022-10-19T02:23:32;95274.88;;;5.59;100.00
23164;BME280;31429;42.674;23.350;2022-10-19T02:24:33;95275.66;;;5.66;100.00
23164;BME280;31429;42.674;23.350;2022-10-19T02:25:34;95246.28;;;5.45;100.00
23164;BME280;31429;42.674;23.350;2022-10-19T02:26:36;95253.78;;;5.57;100.00
23164;BME280;31429;42.674;23.350;2022-10-19T02:27:38;95272.88;;;5.92;100.00
23164;BME280;31429;42.674;23.350;2022-10-19T02:28:41;95273.44;;;6.15;100.00
23164;BME280;31429;42.674;23.350;2022-10-19T02:29:42;95243.78;;;6.18;100.00
23164;BME280;31429;42.674;23.350;2022-10-19T02:30:42;95264.50;;;6.51;100.00
23164;BME280;31429;42.674;23.350;2022-10-19T02:31:43;95273.50;;;6.71;100.00
23164;BME280;31429;42.674;23.350;2022-10-19T02:32:46;95272.50;;;6.83;100.00
23164;BME280;31429;42.674;23.350;2022-10-19T02:33:47;95274.94;;;6.89;100.00
23164;BME280;31429;42.674;23.350;2022-10-19T02:34:47;95277.44;;;6.92;100.00
23164;BME280;31429;42.674;23.350;2022-10-19T02:35:48;95277.50;;;6.89;100.00
23164;BME280;31429;42.674;23.350;2022-10-19T02:36:49;95275.03;;;6.83;100.00
23164;BME280;31429;42.674;23.350;2022-10-19T02:37:50;95274.41;;;6.67;100.00
23164;BME280;31429;42.674;23.350;2022-10-19T02:38:51;95280.66;;;6.47;100.00
23164;BME280;31429;42.674;23.350;2022-10-19T02:39:51;95276.47;;;6.43;100.00
23164;BME280;31429;42.674;23.350;2022-10-19T02:40:59;95276.63;;;6.30;100.00
23164;BME280;31429;42.674;23.350;2022-10-19T02:42:06;95283.34;;;6.34;100.00
23164;BME280;31429;42.674;23.350;2022-10-19T02:43:11;95248.00;;;6.21;100.00
23164;BME280;31429;42.674;23.350;2022-10-19T02:44:18;95284.94;;;6.42;100.00
23164;BME280;31429;42.674;23.350;2022-10-19T02:45:22;95272.91;;;6.54;100.00
23164;BME280;31429;42.674;23.350;2022-10-19T02:46:27;95274.44;;;6.66;100.00
23164;BME280;31429;42.674;23.350;2022-10-19T02:47:34;95265.16;;;6.63;100.00
23164;BME280;31429;42.674;23.350;2022-10-19T02:48:38;95250.19;;;6.45;100.00
23164;BME280;31429;42.674;23.350;2022-10-19T02:49:40;95267.88;;;6.53;100.00
23164;BME280;31429;42.674;23.350;2022-10-19T02:50:42;95276.28;;;6.55;100.00
23164;BME280;31429;42.674;23.350;2022-10-19T02:51:56;95258.59;;;6.47;100.00
23164;BME280;31429;42.674;23.350;2022-10-19T02:52:57;95276.13;;;6.67;100.00
23164;BME280;31429;42.674;23.350;2022-10-19T02:53:58;95263.50;;;6.61;100.00
23164;BME280;31429;42.674;23.350;2022-10-19T02:54:59;95262.59;;;6.65;100.00
23164;BME280;31429;42.674;23.350;2022-10-19T02:55:59;95258.19;;;6.76;100.00
23164;BME280;31429;42.674;23.350;2022-10-19T02:57:00;95227.91;;;6.64;100.00
23164;BME280;31429;42.674;23.350;2022-10-19T02:58:02;95262.28;;;6.86;100.00
23164;BME280;31429;42.674;23.350;2022-10-19T02:59:03;95265.94;;;6.68;100.00
23164;BME280;31429;42.674;23.350;2022-10-19T03:00:05;95269.50;;;6.57;100.00
23164;BME280;31429;42.674;23.350;2022-10-19T03:01:06;95268.16;;;6.31;100.00
23164;BME280;31429;42.674;23.350;2022-10-19T03:02:07;95267.41;;;6.23;100.00
23164;BME280;31429;42.674;23.350;2022-10-19T03:03:08;95194.44;;;5.72;100.00
23164;BME280;31429;42.674;23.350;2022-10-19T03:04:10;95267.56;;;6.11;100.00
23164;BME280;31429;42.674;23.350;2022-10-19T03:05:10;95268.53;;;6.00;100.00
23164;BME280;31429;42.674;23.350;2022-10-19T03:06:11;95265.97;;;6.04;100.00
23164;BME280;31429;42.674;23.350;2022-10-19T03:07:14;95229.78;;;5.90;100.00
23164;BME280;31429;42.674;23.350;2022-10-19T03:08:15;95264.25;;;6.05;100.00
23164;BME280;31429;42.674;23.350;2022-10-19T03:09:15;95269.31;;;6.05;100.00
23164;BME280;31429;42.674;23.350;2022-10-19T03:10:16;95243.31;;;5.89;100.00
23164;BME280;31429;42.674;23.350;2022-10-19T03:11:17;95262.75;;;5.89;100.00
23164;BME280;31429;42.674;23.350;2022-10-19T03:12:17;95268.72;;;5.86;100.00
23164;BME280;31429;42.674;23.350;2022-10-19T03:13:18;95265.25;;;5.92;100.00
23164;BME280;31429;42.674;23.350;2022-10-19T03:14:19;95274.56;;;5.91;100.00
23164;BME280;31429;42.674;23.350;2022-10-19T03:15:19;95249.38;;;5.74;100.00
23164;BME280;31429;42.674;23.350;2022-10-19T03:16:23;95273.75;;;5.89;100.00
23164;BME280;31429;42.674;23.350;2022-10-19T03:17:23;95240.00;;;5.81;100.00
23164;BME280;31429;42.674;23.350;2022-10-19T03:18:24;95271.19;;;5.91;100.00
23164;BME280;31429;42.674;23.350;2022-10-19T03:19:26;95232.38;;;5.79;100.00
23164;BME280;31429;42.674;23.350;2022-10-19T03:20:27;95269.25;;;6.12;100.00
23164;BME280;31429;42.674;23.350;2022-10-19T03:21:27;95269.91;;;6.25;100.00
23164;BME280;31429;42.674;23.350;2022-10-19T03:22:28;95269.84;;;6.32;100.00
23164;BME280;31429;42.674;23.350;2022-10-19T03:23:29;95242.06;;;6.20;100.00
23164;BME280;31429;42.674;23.350;2022-10-19T03:24:30;95277.56;;;6.22;100.00
23164;BME280;31429;42.674;23.350;2022-10-19T03:25:31;95274.38;;;6.09;100.00
23164;BME280;31429;42.674;23.350;2022-10-19T03:26:32;95277.88;;;5.96;100.00
23164;BME280;31429;42.674;23.350;2022-10-19T03:27:32;95272.09;;;5.84;100.00
23164;BME280;31429;42.674;23.350;2022-10-19T03:28:33;95283.94;;;5.86;100.00
23164;BME280;31429;42.674;23.350;2022-10-19T03:29:34;95278.94;;;5.77;100.00
23164;BME280;31429;42.674;23.350;2022-10-19T03:30:34;95276.44;;;5.75;100.00
23164;BME280;31429;42.674;23.350;2022-10-19T03:31:35;95272.25;;;5.70;100.00
23164;BME280;31429;42.674;23.350;2022-10-19T03:32:36;95271.53;;;5.57;100.00
23164;BME280;31429;42.674;23.350;2022-10-19T03:33:36;95270.03;;;5.41;100.00
23164;BME280;31429;42.674;23.350;2022-10-19T03:34:39;95274.31;;;5.36;100.00
23164;BME280;31429;42.674;23.350;2022-10-19T03:35:39;95246.63;;;5.16;100.00
23164;BME280;31429;42.674;23.350;2022-10-19T03:36:40;95272.63;;;5.35;100.00
23164;BME280;31429;42.674;23.350;2022-10-19T03:37:41;95264.97;;;5.37;100.00
23164;BME280;31429;42.674;23.350;2022-10-19T03:38:41;95233.78;;;5.32;100.00
23164;BME280;31429;42.674;23.350;2022-10-19T03:39:42;95236.16;;;5.45;100.00
23164;BME280;31429;42.674;23.350;2022-10-19T03:40:43;95239.34;;;5.64;100.00
23164;BME280;31429;42.674;23.350;2022-10-19T03:41:44;95235.69;;;5.88;100.00
23164;BME280;31429;42.674;23.350;2022-10-19T03:42:44;95245.00;;;5.90;100.00
23164;BME280;31429;42.674;23.350;2022-10-19T03:43:45;94930.53;;;3.90;100.00
23164;BME280;31429;42.674;23.350;2022-10-19T03:44:46;95257.09;;;5.62;100.00
23164;BME280;31429;42.674;23.350;2022-10-19T03:45:47;95266.63;;;5.41;100.00
23164;BME280;31429;42.674;23.350;2022-10-19T03:46:47;95252.47;;;5.21;100.00
23164;BME280;31429;42.674;23.350;2022-10-19T03:47:48;95239.84;;;5.15;100.00
23164;BME280;31429;42.674;23.350;2022-10-19T03:48:50;95216.13;;;5.24;100.00
23164;BME280;31429;42.674;23.350;2022-10-19T03:49:52;95260.81;;;5.33;100.00
23164;BME280;31429;42.674;23.350;2022-10-19T03:50:57;95258.38;;;5.22;100.00
23164;BME280;31429;42.674;23.350;2022-10-19T03:51:58;95256.81;;;5.06;100.00
23164;BME280;31429;42.674;23.350;2022-10-19T03:52:58;95253.22;;;5.28;100.00
23164;BME280;31429;42.674;23.350;2022-10-19T03:54:01;95219.53;;;5.17;100.00
23164;BME280;31429;42.674;23.350;2022-10-19T03:55:02;95252.19;;;5.50;100.00
23164;BME280;31429;42.674;23.350;2022-10-19T03:56:04;95248.63;;;5.65;100.00
23164;BME280;31429;42.674;23.350;2022-10-19T03:57:05;95226.72;;;5.56;100.00
23164;BME280;31429;42.674;23.350;2022-10-19T03:58:05;95251.09;;;5.72;100.00
23164;BME280;31429;42.674;23.350;2022-10-19T03:59:06;95247.56;;;5.82;100.00
23164;BME280;31429;42.674;23.350;2022-10-19T04:00:08;95249.41;;;5.73;100.00
23164;BME280;31429;42.674;23.350;2022-10-19T04:01:11;95243.44;;;5.74;100.00
23164;BME280;31429;42.674;23.350;2022-10-19T04:02:12;95224.19;;;5.58;100.00
23164;BME280;31429;42.674;23.350;2022-10-19T04:03:13;95249.50;;;5.64;100.00
23164;BME280;31429;42.674;23.350;2022-10-19T04:04:15;95220.97;;;5.44;100.00
23164;BME280;31429;42.674;23.350;2022-10-19T04:05:17;95241.25;;;5.42;100.00
23164;BME280;31429;42.674;23.350;2022-10-19T04:06:18;95222.00;;;5.28;100.00
23164;BME280;31429;42.674;23.350;2022-10-19T04:07:20;95253.84;;;5.53;100.00
23164;BME280;31429;42.674;23.350;2022-10-19T04:08:21;95201.69;;;5.29;100.00
23164;BME280;31429;42.674;23.350;2022-10-19T04:09:22;95252.13;;;5.55;100.00
23164;BME280;31429;42.674;23.350;2022-10-19T04:10:23;95258.78;;;5.63;100.00
23164;BME280;31429;42.674;23.350;2022-10-19T04:11:25;95230.91;;;5.63;100.00
23164;BME280;31429;42.674;23.350;2022-10-19T04:12:26;95254.59;;;5.59;100.00
23164;BME280;31429;42.674;23.350;2022-10-19T04:13:27;95256.38;;;5.51;100.00
23164;BME280;31429;42.674;23.350;2022-10-19T04:14:27;95251.34;;;5.50;100.00
23164;BME280;31429;42.674;23.350;2022-10-19T04:15:28;95251.09;;;5.72;100.00
23164;BME280;31429;42.674;23.350;2022-10-19T04:16:30;95247.75;;;5.69;100.00
23164;BME280;31429;42.674;23.350;2022-10-19T04:17:31;95246.03;;;5.72;100.00
23164;BME280;31429;42.674;23.350;2022-10-19T04:18:31;95180.47;;;5.38;100.00
23164;BME280;31429;42.674;23.350;2022-10-19T04:19:32;95240.84;;;5.82;100.00
23164;BME280;31429;42.674;23.350;2022-10-19T04:20:34;95248.34;;;5.91;100.00
23164;BME280;31429;42.674;23.350;2022-10-19T04:21:36;95242.50;;;5.86;100.00
23164;BME280;31429;42.674;23.350;2022-10-19T04:22:37;95241.72;;;5.77;100.00
23164;BME280;31429;42.674;23.350;2022-10-19T04:23:38;95248.59;;;5.68;100.00
23164;BME280;31429;42.674;23.350;2022-10-19T04:24:38;95236.00;;;5.60;100.00
23164;BME280;31429;42.674;23.350;2022-10-19T04:25:39;95208.25;;;5.48;100.00
23164;BME280;31429;42.674;23.350;2022-10-19T04:26:41;95237.72;;;5.57;100.00
23164;BME280;31429;42.674;23.350;2022-10-19T04:27:42;95235.22;;;5.54;100.00
23164;BME280;31429;42.674;23.350;2022-10-19T04:28:43;95206.59;;;5.43;100.00
23164;BME280;31429;42.674;23.350;2022-10-19T04:29:44;95237.56;;;5.72;100.00
23164;BME280;31429;42.674;23.350;2022-10-19T04:30:44;95231.59;;;5.74;100.00
23164;BME280;31429;42.674;23.350;2022-10-19T04:31:47;95221.56;;;5.67;100.00
23164;BME280;31429;42.674;23.350;2022-10-19T04:32:48;95226.53;;;5.76;100.00
23164;BME280;31429;42.674;23.350;2022-10-19T04:33:48;95235.06;;;5.69;100.00
23164;BME280;31429;42.674;23.350;2022-10-19T04:34:49;95229.09;;;5.71;100.00
23164;BME280;31429;42.674;23.350;2022-10-19T04:35:56;95143.66;;;5.08;100.00
23164;BME280;31429;42.674;23.350;2022-10-19T04:36:57;95230.91;;;5.63;100.00
23164;BME280;31429;42.674;23.350;2022-10-19T04:37:58;95234.28;;;5.64;100.00
23164;BME280;31429;42.674;23.350;2022-10-19T04:38:59;95234.34;;;5.56;100.00
23164;BME280;31429;42.674;23.350;2022-10-19T04:40:00;95232.59;;;5.63;100.00
23164;BME280;31429;42.674;23.350;2022-10-19T04:41:01;95200.63;;;5.50;100.00
23164;BME280;31429;42.674;23.350;2022-10-19T04:42:02;95230.75;;;5.75;100.00
23164;BME280;31429;42.674;23.350;2022-10-19T04:43:04;95233.44;;;5.63;100.00
23164;BME280;31429;42.674;23.350;2022-10-19T04:44:05;95231.00;;;5.56;100.00
23164;BME280;31429;42.674;23.350;2022-10-19T04:45:06;95239.56;;;5.44;100.00
23164;BME280;31429;42.674;23.350;2022-10-19T04:46:09;95189.13;;;5.21;100.00
23164;BME280;31429;42.674;23.350;2022-10-19T04:47:10;95203.16;;;5.48;100.00
23164;BME280;31429;42.674;23.350;2022-10-19T04:48:10;95237.59;;;5.69;100.00
23164;BME280;31429;42.674;23.350;2022-10-19T04:49:11;95234.22;;;5.70;100.00
23164;BME280;31429;42.674;23.350;2022-10-19T04:50:12;95218.44;;;5.44;100.00
23164;BME280;31429;42.674;23.350;2022-10-19T04:51:15;95210.00;;;5.45;100.00
23164;BME280;31429;42.674;23.350;2022-10-19T04:52:15;95228.50;;;5.51;100.00
23164;BME280;31429;42.674;23.350;2022-10-19T04:53:16;95239.53;;;5.47;100.00
23164;BME280;31429;42.674;23.350;2022-10-19T04:54:18;95205.06;;;5.30;100.00
23164;BME280;31429;42.674;23.350;2022-10-19T04:55:19;95243.75;;;5.45;100.00
23164;BME280;31429;42.674;23.350;2022-10-19T04:56:21;95239.53;;;5.47;100.00
23164;BME280;31429;42.674;23.350;2022-10-19T04:57:22;95205.97;;;5.22;100.00
23164;BME280;31429;42.674;23.350;2022-10-19T04:58:22;95233.53;;;5.56;100.00
23164;BME280;31429;42.674;23.350;2022-10-19T04:59:23;95225.88;;;5.57;100.00
23164;BME280;31429;42.674;23.350;2022-10-19T05:00:24;95217.53;;;5.48;100.00
23164;BME280;31429;42.674;23.350;2022-10-19T05:01:26;95239.38;;;5.61;100.00
23164;BME280;31429;42.674;23.350;2022-10-19T05:02:27;95243.66;;;5.56;100.00
23164;BME280;31429;42.674;23.350;2022-10-19T05:03:28;95241.25;;;5.42;100.00
23164;BME280;31429;42.674;23.350;2022-10-19T05:04:28;95229.44;;;5.43;100.00
23164;BME280;31429;42.674;23.350;2022-10-19T05:05:30;95232.00;;;5.40;100.00
23164;BME280;31429;42.674;23.350;2022-10-19T05:06:32;95237.91;;;5.40;100.00
23164;BME280;31429;42.674;23.350;2022-10-19T05:07:33;95231.19;;;5.39;100.00
23164;BME280;31429;42.674;23.350;2022-10-19T05:08:34;95235.16;;;5.60;100.00
23164;BME280;31429;42.674;23.350;2022-10-19T05:09:35;95218.34;;;5.51;100.00
23164;BME280;31429;42.674;23.350;2022-10-19T05:10:39;95241.09;;;5.59;100.00
23164;BME280;31429;42.674;23.350;2022-10-19T05:11:40;95199.97;;;5.31;100.00
23164;BME280;31429;42.674;23.350;2022-10-19T05:12:41;95232.72;;;5.51;100.00
23164;BME280;31429;42.674;23.350;2022-10-19T05:13:42;95235.22;;;5.54;100.00
23164;BME280;31429;42.674;23.350;2022-10-19T05:14:43;95232.63;;;5.61;100.00
23164;BME280;31429;42.674;23.350;2022-10-19T05:15:54;95220.75;;;5.63;100.00
23164;BME280;31429;42.674;23.350;2022-10-19T05:16:55;95219.09;;;5.59;100.00
23164;BME280;31429;42.674;23.350;2022-10-19T05:17:55;95233.38;;;5.68;100.00
23164;BME280;31429;42.674;23.350;2022-10-19T05:18:56;95179.50;;;5.49;100.00
23164;BME280;31429;42.674;23.350;2022-10-19T05:19:58;95215.44;;;5.83;100.00
23164;BME280;31429;42.674;23.350;2022-10-19T05:21:03;95223.75;;;5.99;100.00
23164;BME280;31429;42.674;23.350;2022-10-19T05:22:05;95217.03;;;5.93;100.00
23164;BME280;31429;42.674;23.350;2022-10-19T05:23:05;95226.41;;;5.88;100.00
23164;BME280;31429;42.674;23.350;2022-10-19T05:24:06;95221.28;;;5.93;100.00
23164;BME280;31429;42.674;23.350;2022-10-19T05:25:07;95217.94;;;5.89;100.00
23164;BME280;31429;42.674;23.350;2022-10-19T05:26:09;95222.91;;;5.98;100.00
23164;BME280;31429;42.674;23.350;2022-10-19T05:27:10;95227.28;;;5.84;100.00
23164;BME280;31429;42.674;23.350;2022-10-19T05:28:11;95227.41;;;5.72;100.00
23164;BME280;31429;42.674;23.350;2022-10-19T05:29:12;95226.66;;;5.64;100.00
23164;BME280;31429;42.674;23.350;2022-10-19T05:30:13;95237.63;;;5.67;100.00
23164;BME280;31429;42.674;23.350;2022-10-19T05:31:15;95240.97;;;5.68;100.00